Lemoore Naval Air Station (Reeves Field) Airport Lemoore US
ICAO: KNLC
IATA: NLC
Category: Medium
Scheduled Services: No

Elevation: 232 ft
TransAlt. 18000 ft.

Airport Communications:
APP:118.15
ATIS:26.76
CLNC DEL:124.1
DEP:118.15
GND:121.65
BASE OPS:29.93
PMSV METRO:31.7
TWR:128.3

KNLC Zoom In..

If you have problems with the map follow the link
https://www.worldairports.se/pages/airport.php?
ICAO=KNLC

Runways:

(A) RW 14L length 13500 ft width 200 ft
---- / hdg 142

(B) RW 14R length 13497 ft width 200 ft
---- / hdg 142

(C) RW 32L length 13497 ft width 200 ft
---- / hdg 322

(D) RW 32R length 13500 ft width 200 ft
---- / hdg 322

Location; KNLC
Day. 12 / Time. 11.56 Zulu
* Altimeter: 30.28
* Temperature: 07° c. 44.6°f.
* Wind from: 200° Speed 03 kn.
Dewpoint: 07° c.
Visibility: 1/4 Statute Miles.
Conditions: Fog.

KNLC 121156Z AUTO 20003KT 1/4SM FG VV002 07/07 A3028 RMK AO2 SLP253 T00670067 10072 20067 51008 RVRNO


Wind From 200°
Speed 03 kn.

 
 
jpsmedia worldairports.se 2019   terms of use